sensor_id;sensor_type;location;lat;lon;timestamp;pressure;altitude;pressure_sealevel;temperature;humidity
64668;BME280;51077;42.716;23.344;2024-01-25T00:01:38;95918.47;;;8.31;43.39
64668;BME280;51077;42.716;23.344;2024-01-25T00:04:04;95897.34;;;8.32;43.67
64668;BME280;51077;42.716;23.344;2024-01-25T00:06:29;95897.34;;;8.32;43.85
64668;BME280;51077;42.716;23.344;2024-01-25T00:08:55;95883.94;;;8.34;43.67
64668;BME280;51077;42.716;23.344;2024-01-25T00:11:20;95866.59;;;8.37;43.74
64668;BME280;51077;42.716;23.344;2024-01-25T00:13:45;95845.91;;;8.36;43.48
64668;BME280;51077;42.716;23.344;2024-01-25T00:16:11;95836.50;;;8.37;43.61
64668;BME280;51077;42.716;23.344;2024-01-25T00:18:36;95826.16;;;8.26;44.14
64668;BME280;51077;42.716;23.344;2024-01-25T00:21:02;95819.84;;;8.15;44.24
64668;BME280;51077;42.716;23.344;2024-01-25T00:23:27;95829.44;;;8.04;44.35
64668;BME280;51077;42.716;23.344;2024-01-25T00:25:53;95829.16;;;8.02;44.59
64668;BME280;51077;42.716;23.344;2024-01-25T00:28:18;95837.38;;;8.02;44.56
64668;BME280;51077;42.716;23.344;2024-01-25T00:30:44;95835.63;;;8.05;44.73
64668;BME280;51077;42.716;23.344;2024-01-25T00:33:09;95840.66;;;8.06;44.55
64668;BME280;51077;42.716;23.344;2024-01-25T00:35:35;95835.72;;;8.11;44.85
64668;BME280;51077;42.716;23.344;2024-01-25T00:38:01;95825.78;;;8.13;44.45
64668;BME280;51077;42.716;23.344;2024-01-25T00:40:27;95802.97;;;8.16;44.58
64668;BME280;51077;42.716;23.344;2024-01-25T00:42:52;95791.53;;;8.18;44.60
64668;BME280;51077;42.716;23.344;2024-01-25T00:45:19;95795.50;;;8.17;44.64
64668;BME280;51077;42.716;23.344;2024-01-25T00:47:45;95798.25;;;8.17;44.09
64668;BME280;51077;42.716;23.344;2024-01-25T00:50:11;95787.03;;;8.15;44.59
64668;BME280;51077;42.716;23.344;2024-01-25T00:52:37;95789.50;;;8.13;44.60
64668;BME280;51077;42.716;23.344;2024-01-25T00:55:03;95807.69;;;8.16;44.55
64668;BME280;51077;42.716;23.344;2024-01-25T00:57:29;95824.09;;;8.16;44.40
64668;BME280;51077;42.716;23.344;2024-01-25T00:59:55;95833.53;;;8.15;44.74
64668;BME280;51077;42.716;23.344;2024-01-25T01:02:21;95825.31;;;8.15;44.59
64668;BME280;51077;42.716;23.344;2024-01-25T01:04:47;95827.56;;;8.16;44.38
64668;BME280;51077;42.716;23.344;2024-01-25T01:07:13;95814.38;;;8.15;44.54
64668;BME280;51077;42.716;23.344;2024-01-25T01:09:39;95810.41;;;8.16;44.85
64668;BME280;51077;42.716;23.344;2024-01-25T01:12:04;95790.03;;;8.17;44.25
64668;BME280;51077;42.716;23.344;2024-01-25T01:14:29;95760.72;;;8.17;44.55
64668;BME280;51077;42.716;23.344;2024-01-25T01:16:55;95766.91;;;8.18;44.62
64668;BME280;51077;42.716;23.344;2024-01-25T01:19:20;95765.63;;;8.13;44.56
64668;BME280;51077;42.716;23.344;2024-01-25T01:21:46;95757.66;;;8.10;44.80
64668;BME280;51077;42.716;23.344;2024-01-25T01:24:11;95751.94;;;8.07;44.68
64668;BME280;51077;42.716;23.344;2024-01-25T01:26:37;95751.94;;;8.07;44.62
64668;BME280;51077;42.716;23.344;2024-01-25T01:29:03;95763.88;;;8.10;44.85
64668;BME280;51077;42.716;23.344;2024-01-25T01:31:28;95762.66;;;8.11;44.97
64668;BME280;51077;42.716;23.344;2024-01-25T01:33:54;95757.19;;;8.11;44.54
64668;BME280;51077;42.716;23.344;2024-01-25T01:36:20;95752.47;;;8.12;44.57
64668;BME280;51077;42.716;23.344;2024-01-25T01:38:45;95748.97;;;8.11;44.76
64668;BME280;51077;42.716;23.344;2024-01-25T01:41:11;95756.91;;;8.09;44.76
64668;BME280;51077;42.716;23.344;2024-01-25T01:43:38;95762.38;;;8.09;44.85
64668;BME280;51077;42.716;23.344;2024-01-25T01:46:09;95751.94;;;8.07;44.89
64668;BME280;51077;42.716;23.344;2024-01-25T01:48:36;95751.94;;;8.07;44.60
64668;BME280;51077;42.716;23.344;2024-01-25T01:51:01;95738.00;;;8.05;44.99
64668;BME280;51077;42.716;23.344;2024-01-25T01:53:27;95741.00;;;8.07;44.58
64668;BME280;51077;42.716;23.344;2024-01-25T01:55:52;95736.00;;;8.06;45.01
64668;BME280;51077;42.716;23.344;2024-01-25T01:58:18;95723.56;;;8.05;45.07
64668;BME280;51077;42.716;23.344;2024-01-25T02:00:45;95739.97;;;8.05;44.75
64668;BME280;51077;42.716;23.344;2024-01-25T02:03:11;95741.47;;;8.06;44.90
64668;BME280;51077;42.716;23.344;2024-01-25T02:05:36;95738.00;;;8.05;44.95
64668;BME280;51077;42.716;23.344;2024-01-25T02:08:02;95721.59;;;8.05;45.18
64668;BME280;51077;42.716;23.344;2024-01-25T02:10:28;95724.34;;;8.05;44.83
64668;BME280;51077;42.716;23.344;2024-01-25T02:12:53;95723.56;;;8.05;45.06
64668;BME280;51077;42.716;23.344;2024-01-25T02:15:19;95724.06;;;8.03;45.04
64668;BME280;51077;42.716;23.344;2024-01-25T02:17:45;95733.00;;;8.04;45.15
64668;BME280;51077;42.716;23.344;2024-01-25T02:20:11;95734.25;;;8.03;45.32
64668;BME280;51077;42.716;23.344;2024-01-25T02:22:36;95730.00;;;8.02;45.55
64668;BME280;51077;42.716;23.344;2024-01-25T02:25:02;95720.56;;;8.03;45.10
64668;BME280;51077;42.716;23.344;2024-01-25T02:27:27;95704.66;;;8.01;45.35
64668;BME280;51077;42.716;23.344;2024-01-25T02:29:52;95709.09;;;7.99;45.59
64668;BME280;51077;42.716;23.344;2024-01-25T02:32:18;95707.41;;;8.01;45.59
64668;BME280;51077;42.716;23.344;2024-01-25T02:34:43;95690.47;;;7.97;45.58
64668;BME280;51077;42.716;23.344;2024-01-25T02:37:08;95702.59;;;7.96;45.30
64668;BME280;51077;42.716;23.344;2024-01-25T02:39:36;95706.59;;;7.95;45.14
64668;BME280;51077;42.716;23.344;2024-01-25T02:42:01;95712.06;;;7.95;45.61
64668;BME280;51077;42.716;23.344;2024-01-25T02:44:27;95719.00;;;7.96;45.52
64668;BME280;51077;42.716;23.344;2024-01-25T02:46:52;95714.78;;;7.95;45.45
64668;BME280;51077;42.716;23.344;2024-01-25T02:49:18;95699.13;;;7.96;45.45
64668;BME280;51077;42.716;23.344;2024-01-25T02:51:43;95700.38;;;7.95;45.69
64668;BME280;51077;42.716;23.344;2024-01-25T02:54:09;95694.91;;;7.95;45.62
64668;BME280;51077;42.716;23.344;2024-01-25T02:56:35;95695.66;;;7.95;45.82
64668;BME280;51077;42.716;23.344;2024-01-25T02:59:01;95693.41;;;7.94;45.93
64668;BME280;51077;42.716;23.344;2024-01-25T03:01:26;95690.19;;;7.95;45.38
64668;BME280;51077;42.716;23.344;2024-01-25T03:03:53;95701.88;;;7.96;45.58
64668;BME280;51077;42.716;23.344;2024-01-25T03:06:18;95692.91;;;7.95;45.76
64668;BME280;51077;42.716;23.344;2024-01-25T03:08:44;95693.94;;;7.98;45.57
64668;BME280;51077;42.716;23.344;2024-01-25T03:11:09;95703.38;;;7.97;45.90
64668;BME280;51077;42.716;23.344;2024-01-25T03:13:34;95703.38;;;7.97;45.90
64668;BME280;51077;42.716;23.344;2024-01-25T03:16:00;95702.16;;;7.98;45.91
64668;BME280;51077;42.716;23.344;2024-01-25T03:18:25;95677.00;;;7.94;45.98
64668;BME280;51077;42.716;23.344;2024-01-25T03:20:51;95677.53;;;7.98;46.03
64668;BME280;51077;42.716;23.344;2024-01-25T03:23:16;95686.22;;;7.96;45.79
64668;BME280;51077;42.716;23.344;2024-01-25T03:25:42;95674.53;;;7.96;46.26
64668;BME280;51077;42.716;23.344;2024-01-25T03:28:08;95681.97;;;7.95;46.46
64668;BME280;51077;42.716;23.344;2024-01-25T03:30:34;95691.44;;;7.94;46.93
64668;BME280;51077;42.716;23.344;2024-01-25T03:33:00;95697.91;;;7.97;47.11
64668;BME280;51077;42.716;23.344;2024-01-25T03:35:25;95701.94;;;8.01;47.43
64668;BME280;51077;42.716;23.344;2024-01-25T03:37:51;95700.47;;;8.06;46.92
64668;BME280;51077;42.716;23.344;2024-01-25T03:40:16;95682.88;;;8.13;46.98
64668;BME280;51077;42.716;23.344;2024-01-25T03:42:42;95655.09;;;8.20;46.95
64668;BME280;51077;42.716;23.344;2024-01-25T03:45:07;95657.88;;;8.25;46.90
64668;BME280;51077;42.716;23.344;2024-01-25T03:47:33;95661.13;;;8.29;46.81
64668;BME280;51077;42.716;23.344;2024-01-25T03:49:58;95660.41;;;8.35;46.78
64668;BME280;51077;42.716;23.344;2024-01-25T03:52:25;95665.69;;;8.38;46.64
64668;BME280;51077;42.716;23.344;2024-01-25T03:54:50;95649.31;;;8.44;46.68
64668;BME280;51077;42.716;23.344;2024-01-25T03:57:16;95650.56;;;8.48;46.28
64668;BME280;51077;42.716;23.344;2024-01-25T03:59:41;95681.94;;;8.53;46.57
64668;BME280;51077;42.716;23.344;2024-01-25T04:02:06;95665.81;;;8.55;46.51
64668;BME280;51077;42.716;23.344;2024-01-25T04:04:32;95651.91;;;8.59;46.35
64668;BME280;51077;42.716;23.344;2024-01-25T04:06:57;95657.88;;;8.63;46.51
64668;BME280;51077;42.716;23.344;2024-01-25T04:09:23;95637.50;;;8.64;46.42
64668;BME280;51077;42.716;23.344;2024-01-25T04:11:48;95643.22;;;8.66;46.27
64668;BME280;51077;42.716;23.344;2024-01-25T04:14:14;95616.34;;;8.64;46.13
64668;BME280;51077;42.716;23.344;2024-01-25T04:16:41;95626.78;;;8.66;46.16
64668;BME280;51077;42.716;23.344;2024-01-25T04:19:06;95621.31;;;8.66;45.85
64668;BME280;51077;42.716;23.344;2024-01-25T04:21:32;95626.78;;;8.66;46.11
64668;BME280;51077;42.716;23.344;2024-01-25T04:23:57;95632.28;;;8.66;46.19
64668;BME280;51077;42.716;23.344;2024-01-25T04:26:23;95637.50;;;8.64;46.24
64668;BME280;51077;42.716;23.344;2024-01-25T04:28:48;95638.00;;;8.62;46.20
64668;BME280;51077;42.716;23.344;2024-01-25T04:31:14;95640.97;;;8.64;46.31
64668;BME280;51077;42.716;23.344;2024-01-25T04:33:39;95623.53;;;8.62;46.25
64668;BME280;51077;42.716;23.344;2024-01-25T04:36:05;95623.06;;;8.63;45.98
64668;BME280;51077;42.716;23.344;2024-01-25T04:38:31;95632.75;;;8.59;46.04
64668;BME280;51077;42.716;23.344;2024-01-25T04:40:56;95645.19;;;8.60;46.41
64668;BME280;51077;42.716;23.344;2024-01-25T04:43:21;95662.34;;;8.60;46.13
64668;BME280;51077;42.716;23.344;2024-01-25T04:45:47;95665.81;;;8.55;46.44
64668;BME280;51077;42.716;23.344;2024-01-25T04:48:13;95674.50;;;8.53;46.39
64668;BME280;51077;42.716;23.344;2024-01-25T04:50:38;95674.97;;;8.52;46.43
64668;BME280;51077;42.716;23.344;2024-01-25T04:53:04;95690.16;;;8.53;46.57
64668;BME280;51077;42.716;23.344;2024-01-25T04:55:30;95676.22;;;8.51;46.72
64668;BME280;51077;42.716;23.344;2024-01-25T04:57:55;95673.47;;;8.51;46.73
64668;BME280;51077;42.716;23.344;2024-01-25T05:00:22;95676.94;;;8.46;46.61
64668;BME280;51077;42.716;23.344;2024-01-25T05:02:48;95681.66;;;8.45;46.77
64668;BME280;51077;42.716;23.344;2024-01-25T05:05:14;95705.03;;;8.46;46.42
64668;BME280;51077;42.716;23.344;2024-01-25T05:07:40;95703.53;;;8.45;46.71
64668;BME280;51077;42.716;23.344;2024-01-25T05:10:06;95697.31;;;8.45;46.49
64668;BME280;51077;42.716;23.344;2024-01-25T05:12:31;95707.50;;;8.44;46.65
64668;BME280;51077;42.716;23.344;2024-01-25T05:14:58;95701.78;;;8.42;46.71
64668;BME280;51077;42.716;23.344;2024-01-25T05:17:23;95709.72;;;8.40;46.66
64668;BME280;51077;42.716;23.344;2024-01-25T05:19:49;95713.69;;;8.39;46.70
64668;BME280;51077;42.716;23.344;2024-01-25T05:22:14;95732.56;;;8.37;46.68
64668;BME280;51077;42.716;23.344;2024-01-25T05:24:40;95727.53;;;8.36;47.05
64668;BME280;51077;42.716;23.344;2024-01-25T05:27:05;95726.78;;;8.35;46.97
64668;BME280;51077;42.716;23.344;2024-01-25T05:29:31;95723.81;;;8.33;47.07
64668;BME280;51077;42.716;23.344;2024-01-25T05:31:56;95726.53;;;8.33;46.76
64668;BME280;51077;42.716;23.344;2024-01-25T05:34:22;95730.53;;;8.32;46.78
64668;BME280;51077;42.716;23.344;2024-01-25T05:36:48;95718.56;;;8.29;47.04
64668;BME280;51077;42.716;23.344;2024-01-25T05:39:13;95728.22;;;8.25;47.06
64668;BME280;51077;42.716;23.344;2024-01-25T05:41:38;95739.66;;;8.23;47.22
64668;BME280;51077;42.716;23.344;2024-01-25T05:44:05;95735.13;;;8.20;47.07
64668;BME280;51077;42.716;23.344;2024-01-25T05:46:30;95739.88;;;8.20;47.33
64668;BME280;51077;42.716;23.344;2024-01-25T05:48:55;95750.53;;;8.18;47.38
64668;BME280;51077;42.716;23.344;2024-01-25T05:51:21;95752.78;;;8.19;47.17
64668;BME280;51077;42.716;23.344;2024-01-25T05:53:46;95754.00;;;8.18;47.23
64668;BME280;51077;42.716;23.344;2024-01-25T05:56:12;95733.38;;;8.17;47.11
64668;BME280;51077;42.716;23.344;2024-01-25T05:58:37;95737.09;;;8.14;47.74
64668;BME280;51077;42.716;23.344;2024-01-25T06:01:02;95747.25;;;8.14;47.68
64668;BME280;51077;42.716;23.344;2024-01-25T06:03:28;95759.22;;;8.16;47.49
64668;BME280;51077;42.716;23.344;2024-01-25T06:05:53;95760.66;;;8.12;47.75
64668;BME280;51077;42.716;23.344;2024-01-25T06:08:19;95748.03;;;8.14;47.75
64668;BME280;51077;42.716;23.344;2024-01-25T06:10:44;95753.00;;;8.16;47.80
64668;BME280;51077;42.716;23.344;2024-01-25T06:13:09;95745.53;;;8.16;48.02
64668;BME280;51077;42.716;23.344;2024-01-25T06:15:35;95758.97;;;8.14;48.32
64668;BME280;51077;42.716;23.344;2024-01-25T06:18:00;95764.44;;;8.14;48.18
64668;BME280;51077;42.716;23.344;2024-01-25T06:20:26;95761.91;;;8.11;48.19
64668;BME280;51077;42.716;23.344;2024-01-25T06:22:51;95761.41;;;8.12;48.29
64668;BME280;51077;42.716;23.344;2024-01-25T06:25:17;95758.44;;;8.10;48.06
64668;BME280;51077;42.716;23.344;2024-01-25T06:27:42;95763.13;;;8.10;48.38
64668;BME280;51077;42.716;23.344;2024-01-25T06:30:09;95759.44;;;8.13;47.80
64668;BME280;51077;42.716;23.344;2024-01-25T06:32:34;95767.63;;;8.13;47.87
64668;BME280;51077;42.716;23.344;2024-01-25T06:35:00;95766.38;;;8.14;47.95
64668;BME280;51077;42.716;23.344;2024-01-25T06:37:25;95761.69;;;8.14;47.82
64668;BME280;51077;42.716;23.344;2024-01-25T06:39:50;95774.88;;;8.16;48.18
64668;BME280;51077;42.716;23.344;2024-01-25T06:42:16;95770.66;;;8.15;48.18
64668;BME280;51077;42.716;23.344;2024-01-25T06:44:41;95764.19;;;8.18;48.06
64668;BME280;51077;42.716;23.344;2024-01-25T06:47:07;95771.19;;;8.19;48.08
64668;BME280;51077;42.716;23.344;2024-01-25T06:49:32;95769.19;;;8.19;47.86
64668;BME280;51077;42.716;23.344;2024-01-25T06:51:58;95780.16;;;8.25;48.13
64668;BME280;51077;42.716;23.344;2024-01-25T06:54:23;95766.00;;;8.26;47.79
64668;BME280;51077;42.716;23.344;2024-01-25T06:56:48;95766.06;;;8.32;47.86
64668;BME280;51077;42.716;23.344;2024-01-25T06:59:16;95767.56;;;8.33;47.74
64668;BME280;51077;42.716;23.344;2024-01-25T07:01:42;95765.94;;;8.41;47.89
64668;BME280;51077;42.716;23.344;2024-01-25T07:04:07;95761.00;;;8.45;47.57
64668;BME280;51077;42.716;23.344;2024-01-25T07:06:33;95765.97;;;8.47;47.82
64668;BME280;51077;42.716;23.344;2024-01-25T07:08:58;95753.31;;;8.49;47.36
64668;BME280;51077;42.716;23.344;2024-01-25T07:11:24;95771.78;;;8.60;47.24
64668;BME280;51077;42.716;23.344;2024-01-25T07:13:50;95762.41;;;8.67;47.11
64668;BME280;51077;42.716;23.344;2024-01-25T07:16:15;95753.94;;;8.70;47.17
64668;BME280;51077;42.716;23.344;2024-01-25T07:18:40;95740.03;;;8.74;47.01
64668;BME280;51077;42.716;23.344;2024-01-25T07:21:06;95747.28;;;8.77;46.84
64668;BME280;51077;42.716;23.344;2024-01-25T07:23:33;95740.84;;;8.80;46.59
64668;BME280;51077;42.716;23.344;2024-01-25T07:25:59;95761.75;;;8.83;46.87
64668;BME280;51077;42.716;23.344;2024-01-25T07:28:24;95742.63;;;8.89;46.73
64668;BME280;51077;42.716;23.344;2024-01-25T07:30:50;95754.78;;;8.88;46.67
64668;BME280;51077;42.716;23.344;2024-01-25T07:33:16;95752.34;;;8.95;46.47
64668;BME280;51077;42.716;23.344;2024-01-25T07:35:42;95757.84;;;8.95;46.83
64668;BME280;51077;42.716;23.344;2024-01-25T07:38:11;95746.13;;;8.95;46.44
64668;BME280;51077;42.716;23.344;2024-01-25T07:40:37;95758.13;;;8.97;46.47
64668;BME280;51077;42.716;23.344;2024-01-25T07:43:02;95756.88;;;9.04;46.50
64668;BME280;51077;42.716;23.344;2024-01-25T07:45:28;95762.38;;;9.10;46.22
64668;BME280;51077;42.716;23.344;2024-01-25T07:47:53;95771.66;;;9.18;46.20
64668;BME280;51077;42.716;23.344;2024-01-25T07:50:19;95776.16;;;9.21;45.88
64668;BME280;51077;42.716;23.344;2024-01-25T07:52:44;95785.66;;;9.31;45.79
64668;BME280;51077;42.716;23.344;2024-01-25T07:55:10;95776.97;;;9.38;45.82
64668;BME280;51077;42.716;23.344;2024-01-25T07:57:35;95780.78;;;9.57;45.35
64668;BME280;51077;42.716;23.344;2024-01-25T08:00:01;95783.19;;;9.93;45.03
64668;BME280;51077;42.716;23.344;2024-01-25T08:02:26;95770.53;;;10.23;44.65
64668;BME280;51077;42.716;23.344;2024-01-25T08:04:52;95775.56;;;10.36;44.30
64668;BME280;51077;42.716;23.344;2024-01-25T08:07:18;95778.28;;;10.47;44.29
64668;BME280;51077;42.716;23.344;2024-01-25T08:09:43;95779.03;;;10.53;44.18
64668;BME280;51077;42.716;23.344;2024-01-25T08:12:09;95776.28;;;10.59;43.84
64668;BME280;51077;42.716;23.344;2024-01-25T08:14:34;95774.06;;;10.63;43.70
64668;BME280;51077;42.716;23.344;2024-01-25T08:16:59;95770.28;;;10.66;43.83
64668;BME280;51077;42.716;23.344;2024-01-25T08:19:25;95767.53;;;10.66;43.53
64668;BME280;51077;42.716;23.344;2024-01-25T08:21:51;95777.28;;;10.67;43.41
64668;BME280;51077;42.716;23.344;2024-01-25T08:24:16;95784.00;;;10.66;43.51
64668;BME280;51077;42.716;23.344;2024-01-25T08:26:41;95775.78;;;10.66;43.30
64668;BME280;51077;42.716;23.344;2024-01-25T08:29:07;95779.53;;;10.69;43.18
64668;BME280;51077;42.716;23.344;2024-01-25T08:31:32;95786.28;;;10.68;43.23
64668;BME280;51077;42.716;23.344;2024-01-25T08:33:58;95785.03;;;10.69;43.14
64668;BME280;51077;42.716;23.344;2024-01-25T08:36:23;95779.03;;;10.70;43.12
64668;BME280;51077;42.716;23.344;2024-01-25T08:38:49;95780.28;;;10.69;42.94
64668;BME280;51077;42.716;23.344;2024-01-25T08:41:15;95779.78;;;10.71;42.84
64668;BME280;51077;42.716;23.344;2024-01-25T08:43:41;95781.53;;;10.68;42.75
64668;BME280;51077;42.716;23.344;2024-01-25T08:46:07;95793.03;;;10.67;42.82
64668;BME280;51077;42.716;23.344;2024-01-25T08:48:33;95793.78;;;10.67;42.46
64668;BME280;51077;42.716;23.344;2024-01-25T08:50:59;95782.28;;;10.69;42.66
64668;BME280;51077;42.716;23.344;2024-01-25T08:53:25;95790.50;;;10.74;42.44
64668;BME280;51077;42.716;23.344;2024-01-25T08:55:55;95781.78;;;10.81;42.37
64668;BME280;51077;42.716;23.344;2024-01-25T08:58:21;95779.28;;;10.89;42.07
64668;BME280;51077;42.716;23.344;2024-01-25T09:00:47;95782.50;;;10.99;42.02
64668;BME280;51077;42.716;23.344;2024-01-25T09:03:13;95783.97;;;11.05;41.72
64668;BME280;51077;42.716;23.344;2024-01-25T09:05:39;95777.72;;;11.16;41.53
64668;BME280;51077;42.716;23.344;2024-01-25T09:08:11;95784.94;;;11.25;41.43
64668;BME280;51077;42.716;23.344;2024-01-25T09:10:37;95790.41;;;11.36;41.15
64668;BME280;51077;42.716;23.344;2024-01-25T09:13:04;95779.75;;;11.85;40.26
64668;BME280;51077;42.716;23.344;2024-01-25T09:15:29;95785.84;;;12.14;40.10
64668;BME280;51077;42.716;23.344;2024-01-25T09:17:55;95786.50;;;12.31;39.92
64668;BME280;51077;42.716;23.344;2024-01-25T09:20:20;95788.59;;;12.49;39.34
64668;BME280;51077;42.716;23.344;2024-01-25T09:22:45;95790.53;;;12.60;39.31
64668;BME280;51077;42.716;23.344;2024-01-25T09:25:11;95791.97;;;12.72;38.79
64668;BME280;51077;42.716;23.344;2024-01-25T09:27:37;95792.44;;;12.76;38.99
64668;BME280;51077;42.716;23.344;2024-01-25T09:30:05;95785.13;;;12.79;38.83
64668;BME280;51077;42.716;23.344;2024-01-25T09:32:30;95781.75;;;12.92;38.34
64668;BME280;51077;42.716;23.344;2024-01-25T09:34:56;95771.22;;;13.20;38.35
64668;BME280;51077;42.716;23.344;2024-01-25T09:37:21;95777.09;;;13.79;37.44
64668;BME280;51077;42.716;23.344;2024-01-25T09:39:50;95773.84;;;13.80;37.62
64668;BME280;51077;42.716;23.344;2024-01-25T09:42:17;95764.13;;;14.12;37.17
64668;BME280;51077;42.716;23.344;2024-01-25T09:44:43;95758.00;;;14.38;36.59
64668;BME280;51077;42.716;23.344;2024-01-25T09:47:08;95756.91;;;14.41;36.60
64668;BME280;51077;42.716;23.344;2024-01-25T09:49:34;95760.44;;;14.41;36.69
64668;BME280;51077;42.716;23.344;2024-01-25T09:52:03;95756.91;;;14.41;36.53
64668;BME280;51077;42.716;23.344;2024-01-25T09:54:35;95760.81;;;14.32;36.61
64668;BME280;51077;42.716;23.344;2024-01-25T09:57:04;95758.69;;;14.25;36.67
64668;BME280;51077;42.716;23.344;2024-01-25T09:59:31;95760.84;;;14.13;36.94
64668;BME280;51077;42.716;23.344;2024-01-25T10:01:57;95749.22;;;14.01;37.03
64668;BME280;51077;42.716;23.344;2024-01-25T10:04:23;95749.38;;;13.90;37.23
64668;BME280;51077;42.716;23.344;2024-01-25T10:06:49;95743.50;;;13.80;37.35
64668;BME280;51077;42.716;23.344;2024-01-25T10:09:14;95739.09;;;13.72;37.53
64668;BME280;51077;42.716;23.344;2024-01-25T10:11:40;95736.91;;;13.65;37.71
64668;BME280;51077;42.716;23.344;2024-01-25T10:14:06;95722.22;;;13.56;37.89
64668;BME280;51077;42.716;23.344;2024-01-25T10:16:32;95717.44;;;13.57;37.82
64668;BME280;51077;42.716;23.344;2024-01-25T10:18:57;95720.16;;;13.63;37.83
64668;BME280;51077;42.716;23.344;2024-01-25T10:21:23;95718.63;;;13.62;37.78
64668;BME280;51077;42.716;23.344;2024-01-25T10:23:48;95721.72;;;13.77;37.82
64668;BME280;51077;42.716;23.344;2024-01-25T10:26:15;95724.75;;;13.92;37.62
64668;BME280;51077;42.716;23.344;2024-01-25T10:28:41;95718.16;;;14.14;37.37
64668;BME280;51077;42.716;23.344;2024-01-25T10:31:07;95716.72;;;14.26;37.10
64668;BME280;51077;42.716;23.344;2024-01-25T10:33:34;95717.31;;;14.38;36.92
64668;BME280;51077;42.716;23.344;2024-01-25T10:36:00;95717.38;;;14.51;36.60
64668;BME280;51077;42.716;23.344;2024-01-25T10:38:33;95704.66;;;14.62;36.33
64668;BME280;51077;42.716;23.344;2024-01-25T10:41:04;95721.00;;;14.60;36.26
64668;BME280;51077;42.716;23.344;2024-01-25T10:43:34;95713.34;;;14.52;36.21
64668;BME280;51077;42.716;23.344;2024-01-25T10:46:00;95710.94;;;14.43;36.33
64668;BME280;51077;42.716;23.344;2024-01-25T10:48:26;95708.28;;;14.38;36.50
64668;BME280;51077;42.716;23.344;2024-01-25T10:50:53;95697.84;;;14.30;36.54
64668;BME280;51077;42.716;23.344;2024-01-25T10:53:20;95692.50;;;14.19;36.52
64668;BME280;51077;42.716;23.344;2024-01-25T10:55:46;95692.06;;;14.15;36.75
64668;BME280;51077;42.716;23.344;2024-01-25T10:58:13;95694.16;;;14.09;36.82
64668;BME280;51077;42.716;23.344;2024-01-25T11:00:38;95694.78;;;14.02;37.22
64668;BME280;51077;42.716;23.344;2024-01-25T11:03:05;95700.16;;;13.94;37.12
64668;BME280;51077;42.716;23.344;2024-01-25T11:05:31;95697.97;;;13.87;37.16
64668;BME280;51077;42.716;23.344;2024-01-25T11:07:57;95689.50;;;13.85;37.32
64668;BME280;51077;42.716;23.344;2024-01-25T11:10:34;95676.50;;;13.80;37.44
64668;BME280;51077;42.716;23.344;2024-01-25T11:13:03;95661.31;;;13.73;37.59
64668;BME280;51077;42.716;23.344;2024-01-25T11:15:34;95661.84;;;13.72;37.71
64668;BME280;51077;42.716;23.344;2024-01-25T11:18:03;95659.88;;;13.67;37.72
64668;BME280;51077;42.716;23.344;2024-01-25T11:20:30;95652.16;;;13.65;37.88
64668;BME280;51077;42.716;23.344;2024-01-25T11:22:56;95637.63;;;13.65;37.84
64668;BME280;51077;42.716;23.344;2024-01-25T11:25:23;95621.16;;;13.59;37.82
64668;BME280;51077;42.716;23.344;2024-01-25T11:27:49;95632.03;;;13.51;38.10
64668;BME280;51077;42.716;23.344;2024-01-25T11:30:17;95643.66;;;13.44;38.07
64668;BME280;51077;42.716;23.344;2024-01-25T11:32:46;95632.78;;;13.33;38.14
64668;BME280;51077;42.716;23.344;2024-01-25T11:35:11;95628.16;;;13.22;38.19
64668;BME280;51077;42.716;23.344;2024-01-25T11:37:41;95618.00;;;13.12;38.36
64668;BME280;51077;42.716;23.344;2024-01-25T11:40:07;95625.44;;;12.98;38.36
64668;BME280;51077;42.716;23.344;2024-01-25T11:42:33;95645.63;;;12.81;38.28
64668;BME280;51077;42.716;23.344;2024-01-25T11:44:58;95631.97;;;12.70;38.48
64668;BME280;51077;42.716;23.344;2024-01-25T11:47:24;95636.88;;;12.58;38.50
64668;BME280;51077;42.716;23.344;2024-01-25T11:49:49;95632.00;;;12.46;38.82
64668;BME280;51077;42.716;23.344;2024-01-25T11:52:14;95637.31;;;12.38;38.99
64668;BME280;51077;42.716;23.344;2024-01-25T11:54:41;95639.38;;;12.32;38.74
64668;BME280;51077;42.716;23.344;2024-01-25T11:57:06;95623.63;;;12.27;38.83
64668;BME280;51077;42.716;23.344;2024-01-25T11:59:32;95621.69;;;12.22;38.98
64668;BME280;51077;42.716;23.344;2024-01-25T12:01:58;95617.72;;;12.17;38.84
64668;BME280;51077;42.716;23.344;2024-01-25T12:04:24;95635.50;;;12.16;38.95
64668;BME280;51077;42.716;23.344;2024-01-25T12:06:50;95632.81;;;12.11;39.05
64668;BME280;51077;42.716;23.344;2024-01-25T12:09:16;95627.06;;;12.08;38.85
64668;BME280;51077;42.716;23.344;2024-01-25T12:11:41;95622.06;;;12.07;38.99
64668;BME280;51077;42.716;23.344;2024-01-25T12:14:08;95622.88;;;12.02;39.30
64668;BME280;51077;42.716;23.344;2024-01-25T12:16:33;95608.13;;;11.99;39.05
64668;BME280;51077;42.716;23.344;2024-01-25T12:18:59;95611.63;;;12.00;38.90
64668;BME280;51077;42.716;23.344;2024-01-25T12:21:24;95621.09;;;12.04;39.08
64668;BME280;51077;42.716;23.344;2024-01-25T12:23:50;95627.09;;;12.33;38.74
64668;BME280;51077;42.716;23.344;2024-01-25T12:26:16;95627.09;;;12.82;37.89
64668;BME280;51077;42.716;23.344;2024-01-25T12:28:42;95613.69;;;13.35;37.29
64668;BME280;51077;42.716;23.344;2024-01-25T12:31:08;95603.03;;;13.96;36.39
64668;BME280;51077;42.716;23.344;2024-01-25T12:33:34;95591.69;;;14.58;35.58
64668;BME280;51077;42.716;23.344;2024-01-25T12:36:01;95579.03;;;15.16;34.80
64668;BME280;51077;42.716;23.344;2024-01-25T12:38:27;95579.72;;;15.77;34.03
64668;BME280;51077;42.716;23.344;2024-01-25T12:40:55;95560.28;;;16.11;33.53
64668;BME280;51077;42.716;23.344;2024-01-25T12:43:20;95555.03;;;16.57;32.90
64668;BME280;51077;42.716;23.344;2024-01-25T12:45:49;95551.94;;;16.89;32.56
64668;BME280;51077;42.716;23.344;2024-01-25T12:48:15;95553.88;;;17.17;32.03
64668;BME280;51077;42.716;23.344;2024-01-25T12:50:41;95535.28;;;17.41;31.77